Weather at Rabb Dusting Inc Airport

Public forecast

Using degrees Fahrenheit for public forecast. Weather courtesy of forecast.io.

Closest aviation weather report (METAR) to Rabb Dusting Inc Airport

Closest report is Nueces County Airport, 3.2 nm (5.9 km) ESE. Retrieved 2021/01/18 16:35 UTC (0 seconds ago):

KRBO 181635Z AUTO 17015KT 10SM OVC013 22/19 A3006 RMK AO2 T02200188

Closest aviation forecast (TAF) to Rabb Dusting Inc Airport

Closest forecast is Corpus Christi International Airport, 13.0 nm (24.1 km) E. Retrieved 2021/01/18 12:30 UTC (4 hours ago):

TAF KCRP 181128Z 1812/1912 14006KT P6SM SCT020 TEMPO 1812/1816 2SM BR BKN005 FM181600 17012KT P6SM BKN020 FM181800 16020G28KT P6SM BKN025 OVC050 TEMPO 1820/1824 SCT025 BKN050 FM190000 15016G21KT P6SM SCT030 BKN050 FM190800 16011KT P6SM BKN015